Bavaria

Go HERE for most recent data if this page is not up to date.

Jump to table bottom
Date Time Temp F RH % AVG Wind Max Wind Wind Dir 24 Snow Depth
*01/21/19 07 15.6 87 6 15 S - 175 6.7 57.3
*01/21/19 06 16.3 88 8 22 S - 162 6.3 57.1
*01/21/19 05 19.3 89 7 16 W - 292 4.6 55.1
*01/21/19 04 20.1 90 9 15 W - 285 4.2 55.1
*01/21/19 03 20.4 90 7 13 W - 248 3.8 54.8
*01/21/19 02 20.4 90 6 12 NW - 306 3.6 54.5
*01/21/19 01 20.4 90 8 13 W - 267 3.0 54.1
*01/21/19 00 20.9 90 11 19 W - 248 1.9 51.6
*01/20/19 23 21.1 90 14 23 SW - 243 1.1 51.0
*01/20/19 22 21.0 91 13 19 W - 255 0.0 51.1
*01/20/19 21 21.6 85 11 16 W - 257 0.2 51.1
*01/20/19 20 22.1 84 12 18 SW - 236 0.2 51.0
*01/20/19 19 21.9 90 14 23 W - 267 0.2 50.5
*01/20/19 18 21.6 91 17 22 W - 252 0.1 51.1
*01/20/19 17 22.8 85 17 24 W - 271 0.1 146.3
*01/20/19 16 23.4 81 17 24 SW - 244 0.1 146.3
*01/20/19 15 23.8 81 15 22 W - 256 0.1 146.3
*01/20/19 14 23.8 84 15 24 W - 256 0.9 146.3
*01/20/19 13 23.9 90 14 19 W - 262 0.1 146.3
*01/20/19 12 23.8 90 12 16 W - 257 0.1 146.3
*01/20/19 11 23.8 91 10 14 W - 259 -0.0 146.3
*01/20/19 10 23.6 91 9 13 W - 258 -0.1 146.3
*01/20/19 09 23.3 91 10 14 W - 260 -0.0 50.4
*01/20/19 08 22.4 91 4 8 W - 273 0.3 51.0
*01/20/19 07 22.1 91 8 14 S - 199 0.5 50.9
*01/20/19 06 22.9 91 11 17 W - 257 0.9 51.1
*01/20/19 05 22.9 91 12 19 W - 282 1.1 50.9
*01/20/19 04 22.5 91 13 19 W - 256 0.3 50.9
*01/20/19 03 22.4 91 11 17 W - 272 0.0 50.5
*01/20/19 02 22.5 91 13 20 W - 281 0.0 50.9
*01/20/19 01 23.2 91 14 21 W - 257 0.2 146.3
*01/20/19 00 23.8 91 16 25 W - 262 0.1 146.3
.